createdAt,value
2023-01-10T00:02:56.012Z,995.10
2023-01-10T00:07:55.933Z,995.17
2023-01-10T00:12:55.836Z,995.37
2023-01-10T00:17:55.800Z,995.39
2023-01-10T00:22:55.750Z,995.42
2023-01-10T00:27:55.642Z,995.66
2023-01-10T00:32:55.596Z,995.63
2023-01-10T00:37:55.540Z,995.74
2023-01-10T00:42:55.444Z,995.71
2023-01-10T00:47:55.408Z,995.84
2023-01-10T00:52:55.333Z,996.08
2023-01-10T00:57:55.302Z,996.19
2023-01-10T01:02:55.205Z,996.28
2023-01-10T01:07:55.136Z,996.42
2023-01-10T01:12:55.059Z,996.48
2023-01-10T01:17:55.041Z,996.54
2023-01-10T01:22:54.923Z,996.70
2023-01-10T01:27:54.858Z,996.74
2023-01-10T01:32:54.811Z,996.87
2023-01-10T01:37:54.736Z,996.90
2023-01-10T01:42:54.659Z,996.83
2023-01-10T01:47:54.627Z,996.72
2023-01-10T01:52:54.532Z,997.00
2023-01-10T01:57:54.539Z,997.08
2023-01-10T02:03:02.561Z,997.03
2023-01-10T02:07:55.353Z,997.11
2023-01-10T02:12:54.328Z,997.15
2023-01-10T02:17:54.527Z,997.19
2023-01-10T02:22:54.151Z,997.20
2023-01-10T02:27:54.082Z,997.26
2023-01-10T02:33:04.523Z,997.33
2023-01-10T02:37:54.946Z,997.30
2023-01-10T02:42:53.890Z,997.51
2023-01-10T02:47:53.803Z,997.58
2023-01-10T02:52:53.758Z,997.49
2023-01-10T02:57:53.672Z,997.69
2023-01-10T03:02:53.666Z,997.78
2023-01-10T03:07:53.553Z,997.87
2023-01-10T03:12:53.488Z,998.03
2023-01-10T03:17:53.443Z,998.06
2023-01-10T03:22:53.345Z,998.11
2023-01-10T03:27:53.317Z,998.17
2023-01-10T03:32:53.215Z,998.30
2023-01-10T03:37:53.183Z,998.39
2023-01-10T03:42:53.115Z,998.55
2023-01-10T03:47:53.025Z,998.64
2023-01-10T03:52:52.972Z,998.72
2023-01-10T03:57:52.985Z,998.76
2023-01-10T04:02:52.882Z,998.85
2023-01-10T04:07:52.782Z,998.91
2023-01-10T04:12:52.715Z,999.00
2023-01-10T04:17:52.685Z,999.05
2023-01-10T04:22:52.609Z,999.07
2023-01-10T04:27:52.530Z,999.27
2023-01-10T04:32:52.493Z,999.40
2023-01-10T04:37:52.447Z,999.51
2023-01-10T04:42:52.315Z,999.78
2023-01-10T04:47:52.249Z,999.72
2023-01-10T04:52:52.233Z,999.76
2023-01-10T04:57:52.126Z,999.93
2023-01-10T05:02:52.171Z,1000.00
2023-01-10T05:07:52.016Z,1000.13
2023-01-10T05:12:51.938Z,1000.20
2023-01-10T05:17:51.863Z,1000.31
2023-01-10T05:22:51.801Z,1000.34
2023-01-10T05:27:51.765Z,1000.44
2023-01-10T05:32:51.668Z,1000.54
2023-01-10T05:37:51.607Z,1000.63
2023-01-10T05:42:51.601Z,1000.77
2023-01-10T05:47:51.473Z,1000.78
2023-01-10T05:52:58.598Z,1000.97
2023-01-10T05:57:59.419Z,1001.10
2023-01-10T06:02:51.364Z,1001.05
2023-01-10T06:07:51.199Z,1001.18
2023-01-10T06:12:51.150Z,1001.30
2023-01-10T06:17:51.087Z,1001.40
2023-01-10T06:22:51.043Z,1001.56
2023-01-10T06:27:50.958Z,1001.53
2023-01-10T06:32:50.951Z,1001.73
2023-01-10T06:37:50.832Z,1001.72
2023-01-10T06:42:50.780Z,1001.86
2023-01-10T06:47:50.689Z,1001.92
2023-01-10T06:52:50.632Z,1002.13
2023-01-10T06:57:50.870Z,1002.31
2023-01-10T07:02:50.525Z,1002.43
2023-01-10T07:07:50.459Z,1002.40
2023-01-10T07:12:50.392Z,1002.56
2023-01-10T07:17:50.305Z,1002.69
2023-01-10T07:22:50.302Z,1002.83
2023-01-10T07:27:50.198Z,1002.79
2023-01-10T07:32:50.150Z,1002.88
2023-01-10T07:37:54.273Z,1003.01
2023-01-10T07:42:50.048Z,1003.15
2023-01-10T07:47:50.011Z,1003.21
2023-01-10T07:52:49.845Z,1003.27
2023-01-10T07:57:49.853Z,1003.43
2023-01-10T08:02:49.785Z,1003.44
2023-01-10T08:07:49.683Z,1003.55
2023-01-10T08:12:49.578Z,1003.52
2023-01-10T08:17:49.536Z,1003.66
2023-01-10T08:22:49.497Z,1003.74
2023-01-10T08:27:49.408Z,1003.88
2023-01-10T08:32:49.363Z,1003.86
2023-01-10T08:37:49.522Z,1003.99
2023-01-10T08:42:49.213Z,1003.99
2023-01-10T08:47:49.123Z,1004.01
2023-01-10T08:52:49.101Z,1004.08
2023-01-10T08:57:49.034Z,1004.13
2023-01-10T09:02:48.961Z,1004.22
2023-01-10T09:07:48.915Z,1004.37
2023-01-10T09:12:49.133Z,1004.40
2023-01-10T09:17:48.793Z,1004.39
2023-01-10T09:22:48.695Z,1004.70
2023-01-10T09:27:55.598Z,1004.79
2023-01-10T09:32:48.519Z,1004.98
2023-01-10T09:37:48.473Z,1005.03
2023-01-10T09:42:48.387Z,1005.03
2023-01-10T09:47:48.366Z,1004.99
2023-01-10T09:52:48.304Z,1005.16
2023-01-10T09:57:48.229Z,1005.10
2023-01-10T10:02:48.198Z,1005.17
2023-01-10T10:07:48.128Z,1005.14
2023-01-10T10:12:48.021Z,1005.18
2023-01-10T10:17:47.984Z,1005.21
2023-01-10T10:22:47.911Z,1005.19
2023-01-10T10:27:47.869Z,1005.08
2023-01-10T10:32:47.771Z,1005.14
2023-01-10T10:37:47.723Z,1005.17
2023-01-10T10:42:47.610Z,1005.15
2023-01-10T10:47:47.604Z,1005.21
2023-01-10T10:52:47.520Z,1005.08
2023-01-10T10:57:59.459Z,1005.21
2023-01-10T11:02:48.736Z,1005.24
2023-01-10T11:07:47.405Z,1005.35
2023-01-10T11:12:47.233Z,1005.33
2023-01-10T11:17:47.167Z,1005.34
2023-01-10T11:22:47.084Z,1005.43
2023-01-10T11:27:47.044Z,1005.44
2023-01-10T11:32:46.957Z,1005.58
2023-01-10T11:37:46.933Z,1005.63
2023-01-10T11:42:46.811Z,1005.50
2023-01-10T11:47:46.822Z,1005.39
2023-01-10T11:52:46.741Z,1005.30
2023-01-10T11:57:46.651Z,1005.56
2023-01-10T12:02:46.588Z,1005.57
2023-01-10T12:07:46.535Z,1005.60
2023-01-10T12:12:46.436Z,1005.63
2023-01-10T12:17:47.125Z,1005.69
2023-01-10T12:22:46.303Z,1005.74
2023-01-10T12:27:46.264Z,1005.76
2023-01-10T12:32:46.141Z,1005.79
2023-01-10T12:37:46.178Z,1005.94
2023-01-10T12:42:46.127Z,1005.91
2023-01-10T12:47:46.067Z,1005.86
2023-01-10T12:52:45.928Z,1005.95
2023-01-10T12:57:46.544Z,1006.02
2023-01-10T13:02:52.876Z,1006.10
2023-01-10T13:07:52.734Z,1006.16
2023-01-10T13:12:45.620Z,1006.09
2023-01-10T13:17:45.571Z,1006.14
2023-01-10T13:22:45.513Z,1006.09
2023-01-10T13:27:45.508Z,1006.11
2023-01-10T13:32:45.365Z,1006.10
2023-01-10T13:37:45.306Z,1006.36
2023-01-10T13:42:45.235Z,1006.38
2023-01-10T13:47:45.187Z,1006.32
2023-01-10T13:52:45.115Z,1006.47
2023-01-10T13:57:45.317Z,1006.60
2023-01-10T14:02:44.939Z,1006.66
2023-01-10T14:07:44.918Z,1006.69
2023-01-10T14:12:44.821Z,1006.60
2023-01-10T14:17:44.796Z,1006.61
2023-01-10T14:22:44.736Z,1006.65
2023-01-10T14:27:44.683Z,1006.78
2023-01-10T14:32:44.614Z,1006.71
2023-01-10T14:37:44.606Z,1006.81
2023-01-10T14:42:44.572Z,1006.65
2023-01-10T14:47:44.416Z,1006.63
2023-01-10T14:52:44.343Z,1006.69
2023-01-10T14:57:44.247Z,1006.72
2023-01-10T15:02:44.185Z,1006.71
2023-01-10T15:07:44.118Z,1006.68
2023-01-10T15:12:44.062Z,1006.78
2023-01-10T15:17:44.018Z,1006.81
2023-01-10T15:22:44.062Z,1006.94
2023-01-10T15:27:43.918Z,1007.02
2023-01-10T15:32:43.819Z,1007.08
2023-01-10T15:37:43.721Z,1007.07
2023-01-10T15:42:43.751Z,1007.07
2023-01-10T15:47:43.615Z,1007.10
2023-01-10T15:52:43.521Z,1007.18
2023-01-10T15:57:43.485Z,1007.21
2023-01-10T16:02:43.702Z,1007.22
2023-01-10T16:07:43.359Z,1007.26
2023-01-10T16:12:43.427Z,1007.12
2023-01-10T16:17:43.233Z,1007.12
2023-01-10T16:22:43.237Z,1007.15
2023-01-10T16:27:43.104Z,1007.10
2023-01-10T16:32:43.056Z,1007.09
2023-01-10T16:37:42.935Z,1007.04
2023-01-10T16:42:42.921Z,1006.98
2023-01-10T16:47:49.800Z,1006.96
2023-01-10T16:52:42.714Z,1006.97
2023-01-10T16:57:42.665Z,1006.94
2023-01-10T17:02:42.595Z,1006.98
2023-01-10T17:07:42.554Z,1006.93
2023-01-10T17:12:42.735Z,1006.91
2023-01-10T17:17:42.406Z,1006.89
2023-01-10T17:22:42.325Z,1006.96
2023-01-10T17:27:42.305Z,1007.03
2023-01-10T17:32:43.117Z,1007.02
2023-01-10T17:37:42.141Z,1007.05
2023-01-10T17:42:42.111Z,1007.03
2023-01-10T17:47:42.086Z,1006.93
2023-01-10T17:52:41.932Z,1006.87
2023-01-10T17:57:41.980Z,1006.87
2023-01-10T18:02:42.999Z,1006.89
2023-01-10T18:07:41.741Z,1006.85
2023-01-10T18:12:41.671Z,1006.92
2023-01-10T18:17:41.881Z,1006.94
2023-01-10T18:22:41.713Z,1007.10
2023-01-10T18:27:41.845Z,1007.10
2023-01-10T18:32:41.469Z,1007.10
2023-01-10T18:37:41.469Z,1007.17
2023-01-10T18:42:41.616Z,1007.22
2023-01-10T18:47:41.389Z,1007.02
2023-01-10T18:52:41.346Z,1006.98
2023-01-10T18:57:41.549Z,1006.93
2023-01-10T19:02:41.050Z,1007.00
2023-01-10T19:07:41.463Z,1007.00
2023-01-10T19:12:40.965Z,1006.98
2023-01-10T19:17:40.896Z,1006.97
2023-01-10T19:22:40.903Z,1006.96
2023-01-10T19:27:40.752Z,1006.92
2023-01-10T19:32:40.715Z,1006.92
2023-01-10T19:37:40.632Z,1006.89
2023-01-10T19:42:40.571Z,1006.89
2023-01-10T19:47:40.529Z,1006.80
2023-01-10T19:52:40.479Z,1006.70
2023-01-10T19:57:40.354Z,1006.70
2023-01-10T20:02:40.378Z,1006.71
2023-01-10T20:07:40.306Z,1006.71
2023-01-10T20:12:40.142Z,1006.76
2023-01-10T20:17:40.404Z,1006.61
2023-01-10T20:22:40.046Z,1006.66
2023-01-10T20:27:40.237Z,1006.68
2023-01-10T20:32:39.878Z,1006.51
2023-01-10T20:37:40.109Z,1006.56
2023-01-10T20:42:40.886Z,1006.56
2023-01-10T20:47:39.957Z,1006.51
2023-01-10T20:52:39.632Z,1006.57
2023-01-10T20:57:39.527Z,1006.61
2023-01-10T21:02:39.707Z,1006.56
2023-01-10T21:07:39.836Z,1006.48
2023-01-10T21:12:39.416Z,1006.39
2023-01-10T21:17:39.524Z,1006.38
2023-01-10T21:22:39.208Z,1006.38
2023-01-10T21:27:39.232Z,1006.34
2023-01-10T21:32:39.088Z,1006.26
2023-01-10T21:37:40.641Z,1006.27
2023-01-10T21:42:39.000Z,1006.28
2023-01-10T21:47:38.955Z,1006.35
2023-01-10T21:52:38.844Z,1006.40
2023-01-10T21:57:39.638Z,1006.39
2023-01-10T22:02:38.724Z,1006.36
2023-01-10T22:07:38.698Z,1006.33
2023-01-10T22:12:38.577Z,1006.31
2023-01-10T22:17:38.585Z,1006.24
2023-01-10T22:22:38.510Z,1006.12
2023-01-10T22:27:38.413Z,1006.00
2023-01-10T22:32:38.301Z,1005.90
2023-01-10T22:37:38.363Z,1005.86
2023-01-10T22:42:38.279Z,1005.78
2023-01-10T22:47:38.157Z,1005.73
2023-01-10T22:52:38.088Z,1005.65
2023-01-10T22:57:46.663Z,1005.56
2023-01-10T23:02:39.008Z,1005.60
2023-01-10T23:07:37.920Z,1005.40
2023-01-10T23:12:37.803Z,1005.43
2023-01-10T23:17:37.879Z,1005.43
2023-01-10T23:22:37.700Z,1005.29
2023-01-10T23:27:37.669Z,1005.25
2023-01-10T23:32:37.628Z,1005.24
2023-01-10T23:37:38.272Z,1005.14
2023-01-10T23:42:37.426Z,1005.13
2023-01-10T23:47:37.353Z,1005.18
2023-01-10T23:52:37.344Z,1004.96
2023-01-10T23:57:37.201Z,1004.96
